Time;durP1;ratioP1;P1;durP2;ratioP2;P2;SDS_P1;SDS_P2;PMS_P1;PMS_P2;Temp;Humidity;BMP_temperature;BMP_pressure;BME280_temperature;BME280_humidity;BME280_pressure;Samples;Min_cycle;Max_cycle;Signal;HPM_P1;HPM_P2
2021/08/13 00:00:36;;;;;;;6.33;4.13;;;;;;;19.64;71.20;100202.88;5114869;28;20059;-68
2021/08/13 00:03:05;;;;;;;7.82;4.57;;;;;;;19.62;71.38;100200.34;5114518;28;20275;-68
2021/08/13 00:05:35;;;;;;;7.55;4.25;;;;;;;19.62;71.23;100204.69;5114771;28;20039;-67
2021/08/13 00:08:07;;;;;;;;;;;;;;;19.63;71.39;100202.03;5115473;28;20043;-68
2021/08/13 00:10:37;;;;;;;6.28;4.28;;;;;;;19.58;71.70;100198.72;5114493;28;19934;-68
2021/08/13 00:13:06;;;;;;;;;;;;;;;19.52;71.87;100209.28;5114739;28;20562;-68
2021/08/13 00:15:35;;;;;;;6.93;4.77;;;;;;;19.59;71.55;100210.78;5114657;28;19962;-68
2021/08/13 00:18:04;;;;;;;7.25;4.18;;;;;;;19.67;71.37;100220.94;5114272;28;20043;-68
2021/08/13 00:20:34;;;;;;;10.43;4.78;;;;;;;19.69;71.08;100212.22;5114502;28;20048;-68
2021/08/13 00:23:04;;;;;;;8.90;4.63;;;;;;;19.73;71.06;100224.19;5114430;28;20538;-67
2021/08/13 00:25:34;;;;;;;8.10;4.47;;;;;;;19.72;71.08;100227.69;5114450;28;20035;-68
2021/08/13 00:28:05;;;;;;;6.82;4.10;;;;;;;19.74;70.78;100225.91;5114238;28;20525;-68
2021/08/13 00:30:34;;;;;;;7.43;4.70;;;;;;;19.73;71.12;100229.38;5114392;28;20051;-68
2021/08/13 00:33:04;;;;;;;6.50;4.28;;;;;;;19.71;71.42;100218.19;5114417;28;20093;-68
2021/08/13 00:35:34;;;;;;;6.18;4.20;;;;;;;19.79;71.34;100221.44;5113535;28;20047;-68
2021/08/13 00:38:03;;;;;;;6.55;4.25;;;;;;;19.73;71.07;100224.19;5113175;28;20040;-67
2021/08/13 00:40:32;;;;;;;5.88;4.00;;;;;;;19.67;71.51;100224.38;5113092;28;20101;-68
2021/08/13 00:43:02;;;;;;;7.47;4.38;;;;;;;19.73;71.10;100225.91;5113125;28;20089;-68
2021/08/13 00:45:32;;;;;;;6.55;4.38;;;;;;;19.73;70.68;100221.59;5112843;28;20046;-68
2021/08/13 00:48:09;;;;;;;7.38;4.40;;;;;;;19.73;70.56;100216.41;5113052;28;20040;-67
2021/08/13 00:50:49;;;;;;;7.03;4.00;;;;;;;19.66;70.56;100209.72;5114223;28;20047;-68
2021/08/13 00:53:20;;;;;;;7.60;4.20;;;;;;;19.66;70.45;100212.31;5113070;28;20374;-67
2021/08/13 00:55:51;;;;;;;7.45;4.43;;;;;;;19.70;70.77;100224.25;5112666;28;20071;-68
2021/08/13 00:58:34;;;;;;;7.53;4.20;;;;;;;19.70;70.62;100213.06;5113899;28;20056;-67
2021/08/13 01:01:25;;;;;;;7.72;4.68;;;;;;;19.62;70.84;100215.03;5112687;28;20047;-68
2021/08/13 01:03:56;;;;;;;7.13;4.70;;;;;;;19.60;71.17;100222.84;5112619;28;20112;-68
2021/08/13 01:06:28;;;;;;;5.75;4.00;;;;;;;19.61;71.40;100216.78;5112941;28;20481;-68
2021/08/13 01:08:58;;;;;;;8.85;4.45;;;;;;;19.70;70.83;100213.06;5112615;28;20493;-68
2021/08/13 01:11:40;;;;;;;7.03;4.30;;;;;;;19.76;70.56;100221.50;5112626;28;20054;-67
2021/08/13 01:14:13;;;;;;;;;;;;;;;19.72;70.25;100206.97;5112979;28;20096;-68
2021/08/13 01:16:47;;;;;;;8.23;4.60;;;;;;;19.74;70.33;100215.53;5112514;28;19923;-68
2021/08/13 01:19:24;;;;;;;7.28;4.00;;;;;;;19.79;70.15;100208.47;5112498;28;20036;-67
2021/08/13 01:21:58;;;;;;;7.45;4.60;;;;;;;19.82;69.97;100215.31;5114208;28;20054;-67
2021/08/13 01:24:31;;;;;;;8.10;4.53;;;;;;;19.85;70.13;100208.28;5114086;28;20047;-68
2021/08/13 01:27:06;;;;;;;6.55;4.32;;;;;;;19.81;69.87;100201.50;5113830;28;20043;-68
2021/08/13 01:29:46;;;;;;;6.57;4.50;;;;;;;19.80;70.11;100215.34;5096066;28;20064;-67
2021/08/13 01:32:35;;;;;;;7.63;4.32;;;;;;;19.80;70.12;100215.34;5116263;28;20122;-68
2021/08/13 01:35:09;;;;;;;8.65;4.40;;;;;;;19.78;70.01;100217.13;5116141;28;20118;-68
2021/08/13 01:37:42;;;;;;;7.15;4.47;;;;;;;19.75;69.80;100214.63;5116710;28;20047;-68
2021/08/13 01:40:14;;;;;;;11.60;4.80;;;;;;;19.68;70.01;100220.88;5115958;28;20048;-68
2021/08/13 01:42:45;;;;;;;7.05;3.95;;;;;;;19.65;70.02;100207.19;5116095;28;20044;-68
2021/08/13 01:45:22;;;;;;;6.32;4.38;;;;;;;19.62;70.08;100208.13;5115926;28;20065;-68
2021/08/13 01:47:53;;;;;;;7.35;4.20;;;;;;;19.60;70.26;100217.69;5117162;28;20039;-68
2021/08/13 01:50:25;;;;;;;7.72;4.00;;;;;;;19.57;70.32;100212.56;5117125;28;20100;-68
2021/08/13 01:53:00;;;;;;;6.28;4.20;;;;;;;19.56;70.42;100210.88;5098837;28;20054;-68
2021/08/13 01:55:31;;;;;;;7.85;4.53;;;;;;;19.52;70.45;100214.44;5115720;28;20093;-68
2021/08/13 01:58:01;;;;;;;7.60;4.40;;;;;;;19.49;70.38;100209.34;5116088;28;20036;-68
2021/08/13 02:00:30;;;;;;;5.57;3.75;;;;;;;19.39;70.64;100213.94;5115620;28;20039;-68
2021/08/13 02:03:02;;;;;;;7.95;4.60;;;;;;;19.31;70.87;100199.50;5115936;28;20063;-68
2021/08/13 02:05:35;;;;;;;8.18;4.25;;;;;;;19.35;70.93;100207.13;5115828;28;20039;-68
2021/08/13 02:08:09;;;;;;;10.50;4.53;;;;;;;19.28;71.15;100215.97;5115596;28;20038;-68
2021/08/13 02:10:44;;;;;;;6.05;4.07;;;;;;;19.31;71.12;100215.03;5117222;28;20417;-68
2021/08/13 02:13:16;;;;;;;8.75;4.63;;;;;;;19.30;71.05;100214.16;5116631;28;20043;-68
2021/08/13 02:15:56;;;;;;;7.20;4.85;;;;;;;19.30;70.89;100218.50;5115336;28;20047;-68
2021/08/13 02:18:31;;;;;;;6.68;4.63;;;;;;;19.24;71.05;100208.31;5115572;28;20378;-68
2021/08/13 02:21:04;;;;;;;7.25;4.45;;;;;;;19.28;70.85;100221.13;5115836;28;20047;-68
2021/08/13 02:23:35;;;;;;;8.38;4.80;;;;;;;19.34;70.51;100210.59;5115614;28;20393;-68
2021/08/13 02:26:06;;;;;;;7.30;4.63;;;;;;;19.31;70.32;100205.53;5115201;28;20042;-68
2021/08/13 02:28:37;;;;;;;7.30;4.13;;;;;;;19.33;70.30;100215.81;5115492;28;20058;-68
2021/08/13 02:31:06;;;;;;;9.02;4.30;;;;;;;19.28;70.39;100212.50;5098002;28;20046;-68
2021/08/13 02:33:39;;;;;;;6.60;4.13;;;;;;;19.26;70.65;100207.38;5115137;28;20043;-68
2021/08/13 02:36:10;;;;;;;6.13;4.70;;;;;;;19.23;70.64;100204.03;5114946;28;20044;-68
2021/08/13 02:38:51;;;;;;;6.82;4.32;;;;;;;19.25;70.54;100204.81;5115270;28;20486;-68
2021/08/13 02:41:21;;;;;;;8.93;4.28;;;;;;;19.21;70.64;100205.81;5114974;28;20155;-68
2021/08/13 02:43:55;;;;;;;6.70;4.22;;;;;;;19.20;70.77;100206.69;5115187;28;20064;-68
2021/08/13 02:46:28;;;;;;;7.35;4.15;;;;;;;19.21;70.64;100209.25;5114769;28;20063;-68
2021/08/13 02:49:01;;;;;;;8.80;4.53;;;;;;;19.23;70.47;100211.78;5115043;28;20445;-68
2021/08/13 02:51:34;;;;;;;7.68;4.60;;;;;;;19.21;70.68;100204.06;5115042;28;20070;-68
2021/08/13 02:54:04;;;;;;;7.18;4.60;;;;;;;19.23;70.45;100214.38;5115261;28;20078;-68
2021/08/13 02:56:36;;;;;;;9.73;4.93;;;;;;;19.17;70.56;100223.16;5115070;28;20039;-68
2021/08/13 02:59:09;;;;;;;7.32;4.30;;;;;;;19.24;70.34;100226.44;5114870;28;20473;-68
2021/08/13 03:01:41;;;;;;;6.80;4.40;;;;;;;19.26;70.13;100220.34;5115913;28;20500;-68
2021/08/13 03:04:13;;;;;;;7.28;4.50;;;;;;;19.29;70.08;100224.56;5115616;28;20047;-68
2021/08/13 03:06:44;;;;;;;6.55;4.40;;;;;;;19.21;70.19;100214.44;5114372;28;20040;-68
2021/08/13 03:09:16;;;;;;;6.07;4.13;;;;;;;19.25;70.25;100225.53;5114383;28;20434;-68
2021/08/13 03:11:47;;;;;;;6.30;4.10;;;;;;;19.22;70.40;100225.59;5114945;28;20119;-68
2021/08/13 03:14:21;;;;;;;6.70;4.13;;;;;;;19.25;70.41;100217.75;5114822;28;20040;-68
2021/08/13 03:16:52;;;;;;;7.03;4.10;;;;;;;19.22;70.51;100220.44;5115675;28;20047;-68
2021/08/13 03:19:25;;;;;;;7.13;4.30;;;;;;;19.24;70.29;100216.91;5115595;28;20393;-68
2021/08/13 03:21:56;;;;;;;6.72;4.22;;;;;;;19.19;70.68;100210.19;5097282;28;20043;-68
2021/08/13 03:24:25;;;;;;;6.55;4.43;;;;;;;19.23;70.69;100215.22;5115152;28;20036;-68
2021/08/13 03:26:55;;;;;;;8.65;4.78;;;;;;;19.22;70.80;100210.06;5114954;28;20055;-68
2021/08/13 03:29:24;;;;;;;7.82;4.22;;;;;;;19.22;70.88;100212.66;5115081;28;20062;-68
2021/08/13 03:31:59;;;;;;;5.88;4.45;;;;;;;19.25;70.92;100212.59;5113909;28;20039;-68
2021/08/13 03:34:30;;;;;;;9.65;4.80;;;;;;;19.30;70.51;100202.97;5115660;28;20525;-69
2021/08/13 03:37:02;;;;;;;6.75;4.88;;;;;;;19.29;70.33;100202.09;5114323;28;20043;-68
2021/08/13 03:39:33;;;;;;;6.32;4.05;;;;;;;19.21;70.37;100198.03;5113781;28;20050;-68
2021/08/13 03:42:03;;;;;;;6.22;4.28;;;;;;;19.21;70.41;100198.91;5114795;28;20036;-68
2021/08/13 03:44:33;;;;;;;7.78;4.55;;;;;;;19.22;70.42;100195.41;5113646;28;20039;-68
2021/08/13 03:47:03;;;;;;;6.95;4.55;;;;;;;19.20;70.58;100198.91;5113967;28;20059;-68
2021/08/13 03:49:35;;;;;;;7.38;4.32;;;;;;;19.22;70.65;100204.91;5113905;28;20142;-68
2021/08/13 03:52:05;;;;;;;7.38;4.68;;;;;;;19.22;70.55;100210.06;5113583;28;20040;-68
2021/08/13 03:54:34;;;;;;;8.00;4.30;;;;;;;19.20;70.56;100211.88;5114743;28;20054;-68
2021/08/13 03:57:03;;;;;;;7.22;4.93;;;;;;;19.22;70.32;100212.66;5113403;28;20493;-68
2021/08/13 03:59:32;;;;;;;9.45;4.75;;;;;;;19.24;70.15;100208.31;5114628;28;20081;-68
2021/08/13 04:02:02;;;;;;;8.65;4.93;;;;;;;19.26;70.05;100198.78;5114127;28;20039;-69
2021/08/13 04:04:31;;;;;;;7.55;4.63;;;;;;;19.24;70.03;100195.38;5113289;28;20055;-68
2021/08/13 04:07:02;;;;;;;6.65;4.70;;;;;;;19.22;69.99;100200.56;5114773;28;20044;-68
2021/08/13 04:09:31;;;;;;;8.73;4.80;;;;;;;19.21;70.15;100203.22;5114336;28;20051;-67
2021/08/13 04:12:00;;;;;;;7.35;4.38;;;;;;;19.22;70.21;100207.50;5114385;28;20065;-67
2021/08/13 04:14:33;;;;;;;8.57;4.60;;;;;;;19.20;70.17;100204.09;5113161;28;20043;-67
2021/08/13 04:17:04;;;;;;;7.07;4.55;;;;;;;19.23;70.06;100206.59;5113691;28;20043;-67
2021/08/13 04:19:33;;;;;;;6.28;4.72;;;;;;;19.26;70.16;100191.00;5114426;28;20477;-67
2021/08/13 04:22:05;;;;;;;6.70;4.18;;;;;;;19.25;70.08;100199.66;5114163;28;20079;-67
2021/08/13 04:24:34;;;;;;;7.00;4.38;;;;;;;19.31;69.95;100202.09;5112979;28;20047;-67
2021/08/13 04:27:04;;;;;;;9.73;4.78;;;;;;;19.30;69.80;100197.78;5113849;28;20048;-67
2021/08/13 04:29:34;;;;;;;9.15;4.72;;;;;;;19.38;69.71;100201.91;5095871;28;20039;-67
2021/08/13 04:32:03;;;;;;;6.32;4.43;;;;;;;19.42;69.72;100192.28;5112932;28;20032;-67
2021/08/13 04:34:33;;;;;;;8.52;4.60;;;;;;;19.42;69.80;100194.88;5113244;28;20074;-67
2021/08/13 04:37:04;;;;;;;6.57;4.22;;;;;;;19.44;69.49;100200.84;5113220;28;20123;-67
2021/08/13 04:39:33;;;;;;;6.25;4.22;;;;;;;19.44;69.87;100206.03;5113073;28;20444;-67
2021/08/13 04:42:03;;;;;;;6.57;4.28;;;;;;;19.50;69.81;100211.06;5095767;28;20550;-67
2021/08/13 04:44:32;;;;;;;8.32;4.43;;;;;;;19.54;69.54;100217.84;5113134;28;20039;-67
2021/08/13 04:47:06;;;;;;;8.95;4.38;;;;;;;19.58;69.23;100219.44;5113299;28;20040;-67
2021/08/13 04:49:36;;;;;;;7.82;4.43;;;;;;;19.58;68.99;100219.44;5113183;28;20070;-67
2021/08/13 04:52:07;;;;;;;7.43;4.10;;;;;;;19.68;68.97;100226.06;5113823;28;20047;-67
2021/08/13 04:54:36;;;;;;;6.13;4.60;;;;;;;19.75;68.91;100231.91;5113000;28;20049;-67
2021/08/13 04:57:06;;;;;;;6.78;4.15;;;;;;;19.78;68.54;100227.50;5112699;28;20069;-67
2021/08/13 04:59:35;;;;;;;7.30;3.83;;;;;;;19.80;68.37;100230.88;5113845;28;20039;-67
2021/08/13 05:02:11;;;;;;;6.78;4.28;;;;;;;19.82;68.39;100223.91;5112770;28;20043;-67
2021/08/13 05:04:41;;;;;;;7.25;4.68;;;;;;;19.83;68.28;100225.63;5115082;28;20558;-67
2021/08/13 05:07:11;;;;;;;7.13;4.65;;;;;;;19.80;68.17;100230.88;5116656;28;20067;-67
2021/08/13 05:09:41;;;;;;;6.93;4.10;;;;;;;19.77;68.39;100230.97;5116590;28;20100;-67
2021/08/13 05:12:10;;;;;;;6.10;4.20;;;;;;;19.84;68.31;100229.88;5116888;28;20046;-67
2021/08/13 05:14:40;;;;;;;7.68;4.97;;;;;;;19.94;68.01;100231.31;5116505;28;20082;-67
2021/08/13 05:17:10;;;;;;;7.18;4.70;;;;;;;20.08;67.80;100235.25;5116752;28;20439;-67
2021/08/13 05:19:39;;;;;;;6.57;4.90;;;;;;;20.26;67.28;100229.50;5118113;28;20040;-67
2021/08/13 05:22:12;;;;;;;6.75;4.38;;;;;;;20.40;66.92;100233.38;5116210;28;20777;-67
2021/08/13 05:24:41;;;;;;;6.10;4.15;;;;;;;20.51;66.46;100225.25;5116345;28;20443;-67
2021/08/13 05:27:10;;;;;;;8.40;4.18;;;;;;;20.76;66.22;100231.31;5116241;28;20047;-67
2021/08/13 05:29:40;;;;;;;6.93;4.57;;;;;;;20.79;66.11;100231.22;5116194;28;20127;-67
2021/08/13 05:32:10;;;;;;;6.50;4.18;;;;;;;20.75;65.83;100232.25;5116161;28;20053;-67
2021/08/13 05:34:39;;;;;;;8.68;4.82;;;;;;;20.73;65.75;100238.38;5116172;28;20061;-67
2021/08/13 05:37:08;;;;;;;7.07;4.07;;;;;;;20.69;66.08;100240.22;5116109;28;20127;-67
2021/08/13 05:39:43;;;;;;;6.80;4.28;;;;;;;20.65;66.23;100233.44;5116340;28;20058;-67
2021/08/13 05:42:12;;;;;;;6.32;3.92;;;;;;;20.71;66.12;100233.22;5115871;28;20500;-67
2021/08/13 05:44:43;;;;;;;6.32;4.40;;;;;;;20.72;65.81;100234.94;5115988;28;20105;-67
2021/08/13 05:47:12;;;;;;;;;;;;;;;20.78;65.90;100245.09;5116644;28;20039;-67
2021/08/13 05:49:41;;;;;;;8.27;4.73;;;;;;;20.97;65.24;100238.38;5115852;28;19924;-67
2021/08/13 05:52:10;;;;;;;7.97;4.57;;;;;;;21.17;64.84;100235.97;5115895;28;20143;-67
2021/08/13 05:54:40;;;;;;;7.03;4.68;;;;;;;21.37;64.21;100235.28;5115767;28;20036;-66
2021/08/13 05:57:10;;;;;;;7.38;4.30;;;;;;;21.49;63.69;100241.78;5115736;28;20550;-67
2021/08/13 05:59:39;;;;;;;7.07;4.57;;;;;;;21.52;63.32;100237.34;5115804;28;20039;-67
2021/08/13 06:02:08;;;;;;;6.03;4.55;;;;;;;21.57;63.42;100239.75;5116933;28;20035;-67
2021/08/13 06:04:41;;;;;;;6.97;4.18;;;;;;;21.66;63.50;100242.03;5115702;28;20051;-67
2021/08/13 06:07:10;;;;;;;7.15;4.38;;;;;;;21.89;63.17;100239.44;5115506;28;20043;-67
2021/08/13 06:09:39;;;;;;;8.50;4.45;;;;;;;21.85;62.59;100238.72;5115467;28;20054;-67
2021/08/13 06:12:10;;;;;;;6.55;4.43;;;;;;;21.83;62.40;100234.44;5116619;28;20035;-67
2021/08/13 06:14:39;;;;;;;6.82;3.97;;;;;;;21.90;62.40;100234.19;5115647;28;20075;-67
2021/08/13 06:17:09;;;;;;;8.50;4.85;;;;;;;22.09;62.28;100234.31;5115115;28;20044;-67
2021/08/13 06:19:38;;;;;;;9.73;4.80;;;;;;;22.25;61.86;100238.00;5116391;28;20056;-67
2021/08/13 06:22:08;;;;;;;7.35;4.40;;;;;;;22.30;61.76;100241.28;5116290;28;20474;-67
2021/08/13 06:24:37;;;;;;;8.85;4.43;;;;;;;22.26;61.76;100250.13;5115066;28;20036;-67
2021/08/13 06:27:12;;;;;;;8.65;4.57;;;;;;;22.19;61.92;100238.25;5115469;28;20079;-68
2021/08/13 06:29:41;;;;;;;7.72;3.78;;;;;;;22.22;61.90;100245.09;5115434;28;20119;-67
2021/08/13 06:32:10;;;;;;;6.35;4.03;;;;;;;22.50;60.65;100251.75;5115072;28;20138;-67
2021/08/13 06:34:39;;;;;;;6.13;4.00;;;;;;;22.61;59.79;100240.91;5116090;28;20050;-67
2021/08/13 06:37:08;;;;;;;9.68;4.30;;;;;;;22.62;59.17;100240.88;5115962;28;20516;-67
2021/08/13 06:39:40;;;;;;;6.70;3.65;;;;;;;22.71;59.08;100241.38;5115468;28;20042;-66
2021/08/13 06:42:13;;;;;;;6.28;3.97;;;;;;;22.73;58.70;100245.63;5114726;28;20462;-67
2021/08/13 06:44:51;;;;;;;5.40;3.72;;;;;;;22.73;58.67;100240.41;5114753;28;20185;-67
2021/08/13 06:47:21;;;;;;;8.20;3.72;;;;;;;22.89;58.59;100235.44;5115062;28;20044;-67
2021/08/13 06:49:50;;;;;;;6.97;4.13;;;;;;;23.17;57.88;100238.53;5115988;28;20044;-68
2021/08/13 06:52:19;;;;;;;5.50;3.85;;;;;;;23.39;57.47;100234.13;5114922;28;20036;-67
2021/08/13 06:54:48;;;;;;;7.88;3.58;;;;;;;23.46;57.00;100237.31;5114523;28;20059;-67
2021/08/13 06:57:19;;;;;;;;;;;;;;;23.49;57.02;100243.19;5114890;28;20054;-68
2021/08/13 06:59:48;;;;;;;5.97;3.30;;;;;;;23.46;56.91;100245.13;5115615;28;19919;-67
2021/08/13 07:02:17;;;;;;;5.30;3.45;;;;;;;23.43;56.62;100238.28;5114270;28;20040;-67
2021/08/13 07:04:47;;;;;;;6.22;3.75;;;;;;;23.36;56.65;100246.44;5114321;28;20047;-68
2021/08/13 07:07:21;;;;;;;7.00;3.78;;;;;;;23.41;56.72;100244.47;5115689;28;20085;-67
2021/08/13 07:09:50;;;;;;;5.72;3.83;;;;;;;23.61;56.23;100244.44;5115662;28;20031;-67
2021/08/13 07:12:22;;;;;;;5.80;3.78;;;;;;;23.81;55.76;100239.16;5114507;28;20047;-66
2021/08/13 07:14:51;;;;;;;5.30;3.50;;;;;;;23.89;55.58;100234.44;5114508;28;20423;-67
2021/08/13 07:17:20;;;;;;;6.90;3.40;;;;;;;23.83;55.62;100247.75;5114382;28;20027;-67
2021/08/13 07:19:50;;;;;;;6.88;3.90;;;;;;;23.75;55.93;100247.25;5113998;28;20055;-67
2021/08/13 07:22:19;;;;;;;6.47;4.00;;;;;;;23.82;55.87;100243.47;5114156;28;20073;-66
2021/08/13 07:24:48;;;;;;;7.22;3.78;;;;;;;23.91;55.51;100237.81;5115603;28;20489;-67
2021/08/13 07:27:17;;;;;;;6.78;3.63;;;;;;;24.05;55.27;100239.78;5114597;28;20495;-67
2021/08/13 07:29:48;;;;;;;8.75;3.90;;;;;;;24.35;54.45;100241.81;5115046;28;20388;-67
2021/08/13 07:32:17;;;;;;;5.28;3.42;;;;;;;24.42;53.92;100239.75;5096859;28;20051;-67
2021/08/13 07:34:47;;;;;;;5.95;3.25;;;;;;;24.51;53.69;100241.91;5115324;28;20453;-67
2021/08/13 07:37:17;;;;;;;6.20;4.10;;;;;;;24.53;53.37;100240.06;5114218;28;20046;-67
2021/08/13 07:39:47;;;;;;;;;;;;;;;24.81;53.04;100244.81;5115295;28;20046;-67
2021/08/13 07:42:16;;;;;;;5.18;3.33;;;;;;;25.10;52.17;100247.63;5113618;28;19963;-67
2021/08/13 07:44:45;;;;;;;6.05;3.15;;;;;;;25.22;51.89;100244.38;5113934;28;20036;-67
2021/08/13 07:47:17;;;;;;;6.82;3.85;;;;;;;25.31;51.32;100246.53;5113747;28;20058;-67
2021/08/13 07:49:48;;;;;;;5.88;3.55;;;;;;;25.30;51.28;100244.84;5113501;28;20047;-67
2021/08/13 07:52:18;;;;;;;6.55;3.42;;;;;;;25.61;50.53;100253.72;5113715;28;20036;-67
2021/08/13 07:54:47;;;;;;;6.00;3.45;;;;;;;25.90;50.33;100250.38;5113652;28;20051;-67
2021/08/13 07:57:19;;;;;;;7.55;3.20;;;;;;;25.75;50.13;100245.97;5113378;28;20043;-66
2021/08/13 07:59:49;;;;;;;6.18;3.60;;;;;;;25.61;50.31;100258.94;5113437;28;20036;-67
2021/08/13 08:02:23;;;;;;;6.40;3.75;;;;;;;25.41;50.61;100256.53;5113415;28;20040;-67
2021/08/13 08:04:52;;;;;;;5.50;3.20;;;;;;;25.27;50.68;100255.44;5114445;28;20113;-67
2021/08/13 08:07:21;;;;;;;5.28;3.42;;;;;;;25.18;50.56;100252.47;5114562;28;20116;-68
2021/08/13 08:09:50;;;;;;;6.28;3.88;;;;;;;25.15;51.20;100250.84;5114631;28;20501;-68
2021/08/13 08:12:19;;;;;;;5.32;3.53;;;;;;;25.43;51.09;100254.66;5114467;28;20050;-68
2021/08/13 08:14:48;;;;;;;5.28;3.33;;;;;;;25.67;50.17;100256.03;5114924;28;20044;-67
2021/08/13 08:17:17;;;;;;;5.97;3.30;;;;;;;25.69;49.89;100262.84;5114307;28;20080;-68
2021/08/13 08:19:48;;;;;;;6.07;3.60;;;;;;;25.63;49.87;100262.31;5114282;28;20040;-68
2021/08/13 08:22:17;;;;;;;6.35;3.63;;;;;;;25.86;49.86;100261.94;5114218;28;20044;-68
2021/08/13 08:24:45;;;;;;;6.82;3.97;;;;;;;26.27;49.31;100271.03;5114004;28;20092;-68
2021/08/13 08:27:14;;;;;;;5.32;3.88;;;;;;;26.67;48.27;100271.38;5114050;28;20512;-68
2021/08/13 08:29:43;;;;;;;5.55;3.75;;;;;;;27.07;48.54;100268.16;5114051;28;20085;-68
2021/08/13 08:32:12;;;;;;;6.65;3.97;;;;;;;26.98;47.85;100272.16;5114453;28;20038;-68
2021/08/13 08:34:41;;;;;;;6.82;3.60;;;;;;;26.59;49.23;100275.28;5114342;28;20040;-67
2021/08/13 08:37:12;;;;;;;5.45;3.45;;;;;;;26.38;48.49;100273.03;5114034;28;20040;-68
2021/08/13 08:39:43;;;;;;;5.55;3.55;;;;;;;26.39;47.89;100272.97;5113810;28;20047;-68
2021/08/13 08:42:14;;;;;;;6.22;3.60;;;;;;;26.79;47.42;100271.56;5114264;28;20044;-68
2021/08/13 08:44:44;;;;;;;6.65;3.75;;;;;;;27.24;47.31;100275.88;5113934;28;20122;-68
2021/08/13 08:47:13;;;;;;;;;;;;;;;27.54;47.61;100274.06;5114304;28;20059;-68
2021/08/13 08:49:46;;;;;;;6.10;4.05;;;;;;;27.86;47.29;100270.28;5113791;28;19919;-67
2021/08/13 08:52:18;;;;;;;5.50;3.50;;;;;;;27.91;45.34;100273.47;5113870;28;20051;-68
2021/08/13 08:54:48;;;;;;;5.68;3.20;;;;;;;28.08;44.52;100268.97;5113896;28;20032;-68
2021/08/13 08:57:18;;;;;;;4.72;3.20;;;;;;;28.18;44.42;100264.81;5114107;28;20516;-68
2021/08/13 08:59:49;;;;;;;7.05;3.22;;;;;;;28.36;44.12;100268.91;5113926;28;20051;-67
2021/08/13 09:02:19;;;;;;;8.45;3.50;;;;;;;28.36;43.59;100266.28;5113814;28;20055;-67
2021/08/13 09:04:48;;;;;;;;;;;;;;;28.50;44.46;100263.59;5114113;28;20046;-68
2021/08/13 09:07:18;;;;;;;6.67;3.23;;;;;;;28.70;43.75;100257.06;5113787;28;20361;-68
2021/08/13 09:09:47;;;;;;;5.60;3.13;;;;;;;28.68;42.95;100259.78;5113803;28;20071;-68
2021/08/13 09:12:16;;;;;;;5.53;3.22;;;;;;;28.40;42.17;100260.72;5113674;28;20044;-68
2021/08/13 09:14:45;;;;;;;5.38;3.17;;;;;;;28.60;42.17;100262.09;5113656;28;20043;-69
2021/08/13 09:17:14;;;;;;;4.25;2.90;;;;;;;28.67;41.74;100263.38;5113990;28;20040;-68
2021/08/13 09:19:45;;;;;;;5.07;3.15;;;;;;;28.59;41.93;100265.59;5113620;28;20505;-67
2021/08/13 09:22:17;;;;;;;6.70;3.13;;;;;;;28.61;41.70;100263.75;5114330;28;20031;-68
2021/08/13 09:24:49;;;;;;;5.38;3.05;;;;;;;28.73;41.81;100262.94;5113525;28;20052;-67
2021/08/13 09:27:20;;;;;;;5.13;3.58;;;;;;;28.87;41.07;100259.38;5112248;28;20060;-68
2021/08/13 09:30:10;;;;;;;4.85;3.15;;;;;;;29.08;42.48;100257.97;5112278;28;20035;-68
2021/08/13 09:32:54;;;;;;;5.53;3.35;;;;;;;29.09;42.60;100257.84;5112222;28;20108;-68
2021/08/13 09:35:34;;;;;;;4.80;3.15;;;;;;;29.18;42.32;100259.88;5113445;28;20428;-68
2021/08/13 09:38:11;;;;;;;5.45;3.55;;;;;;;29.43;42.68;100258.19;5113118;28;20036;-68
2021/08/13 09:40:41;;;;;;;5.97;3.17;;;;;;;29.52;42.97;100258.41;5113245;28;20047;-68
2021/08/13 09:43:10;;;;;;;4.40;2.72;;;;;;;29.68;43.45;100258.19;5113374;28;20051;-68
2021/08/13 09:45:39;;;;;;;4.70;2.80;;;;;;;29.81;41.65;100253.75;5113205;28;20123;-68
2021/08/13 09:48:24;;;;;;;4.50;3.22;;;;;;;29.88;40.29;100254.16;5113320;28;20553;-68
2021/08/13 09:50:53;;;;;;;5.18;3.42;;;;;;;29.95;40.57;100250.13;5113833;28;20063;-68
2021/08/13 09:53:23;;;;;;;6.03;3.67;;;;;;;29.99;40.10;100247.19;5116887;28;20082;-68
2021/08/13 09:55:53;;;;;;;5.75;3.38;;;;;;;30.06;39.44;100243.16;5116844;28;20043;-68
2021/08/13 09:58:25;;;;;;;4.70;3.22;;;;;;;29.79;39.41;100238.09;5117199;28;20108;-70
2021/08/13 10:00:55;;;;;;;5.55;3.17;;;;;;;29.92;39.80;100240.69;5116908;28;20047;-69
2021/08/13 10:03:24;;;;;;;6.00;3.17;;;;;;;29.93;39.64;100241.50;5117013;28;20043;-69
2021/08/13 10:06:05;;;;;;;5.82;3.30;;;;;;;29.87;39.61;100234.91;5116663;28;20096;-69
2021/08/13 10:08:45;;;;;;;4.47;2.80;;;;;;;30.00;40.27;100233.06;5116636;28;20044;-69
2021/08/13 10:11:15;;;;;;;5.13;2.97;;;;;;;29.86;40.10;100235.84;5115409;28;20044;-69
2021/08/13 10:13:54;;;;;;;4.70;3.33;;;;;;;29.75;39.66;100235.75;5115406;28;20044;-69
2021/08/13 10:16:28;;;;;;;5.85;3.20;;;;;;;29.83;39.67;100236.06;5115359;28;20062;-69
2021/08/13 10:19:16;;;;;;;5.90;3.40;;;;;;;29.84;39.56;100243.88;5115291;28;20131;-69
2021/08/13 10:21:45;;;;;;;5.35;3.30;;;;;;;29.95;39.18;100250.97;5115511;28;20039;-69
2021/08/13 10:24:15;;;;;;;4.72;2.85;;;;;;;30.00;39.22;100256.75;5116904;28;20074;-69
2021/08/13 10:26:45;;;;;;;13.98;5.97;;;;;;;29.73;39.40;100243.72;5097864;28;20054;-69
2021/08/13 10:29:14;;;;;;;6.28;3.63;;;;;;;29.73;40.52;100251.63;5115030;28;20127;-69
2021/08/13 10:31:44;;;;;;;;;;;;;;;29.80;40.54;100250.28;5115567;28;20032;-69
2021/08/13 10:34:13;;;;;;;4.82;3.17;;;;;;;29.70;40.55;100256.28;5115549;28;19923;-69
2021/08/13 10:36:46;;;;;;;4.57;3.20;;;;;;;29.85;40.57;100249.94;5116082;28;20044;-69
2021/08/13 10:39:18;;;;;;;4.40;3.08;;;;;;;29.88;40.24;100257.63;5116145;28;20078;-70
2021/08/13 10:41:49;;;;;;;4.85;3.00;;;;;;;30.05;39.59;100257.28;5115989;28;20052;-69
2021/08/13 10:44:22;;;;;;;5.05;3.55;;;;;;;30.38;39.59;100262.75;5116455;27;20200;-68
2021/08/13 10:46:56;;;;;;;6.47;3.53;;;;;;;30.24;39.52;100251.50;5115078;28;20455;-69
2021/08/13 10:49:27;;;;;;;6.80;3.80;;;;;;;30.17;39.50;100247.63;5114884;28;20036;-69
2021/08/13 10:52:03;;;;;;;4.70;3.17;;;;;;;30.37;39.33;100253.19;5097620;28;20062;-69
2021/08/13 10:54:41;;;;;;;5.57;3.20;;;;;;;30.48;38.84;100237.41;5114551;28;20558;-69
2021/08/13 10:57:13;;;;;;;5.93;3.28;;;;;;;30.77;38.70;100237.03;5114861;28;20093;-69
2021/08/13 10:59:53;;;;;;;4.82;3.20;;;;;;;31.12;38.31;100236.06;5114870;28;20043;-69
2021/08/13 11:02:23;;;;;;;5.90;3.35;;;;;;;31.10;38.51;100237.13;5114531;28;20122;-69
2021/08/13 11:04:58;;;;;;;6.00;3.22;;;;;;;31.16;38.14;100226.13;5097359;28;20504;-70
2021/08/13 11:07:50;;;;;;;4.47;3.10;;;;;;;31.16;38.22;100223.50;5114462;28;20050;-69
2021/08/13 11:10:47;;;;;;;5.15;3.42;;;;;;;31.13;38.29;100221.06;5115896;28;20478;-69
2021/08/13 11:13:19;;;;;;;5.97;3.03;;;;;;;31.17;38.43;100222.50;5108469;28;20039;-70
2021/08/13 11:15:52;;;;;;;5.03;3.38;;;;;;;31.25;38.10;100230.69;5114507;28;20048;-69
2021/08/13 11:18:31;;;;;;;5.75;3.60;;;;;;;30.99;38.23;100229.22;5114197;28;20135;-69
2021/08/13 11:21:04;;;;;;;5.00;3.10;;;;;;;30.73;38.71;100217.97;5114322;28;20046;-70
2021/08/13 11:23:58;;;;;;;5.03;3.28;;;;;;;31.14;38.65;100213.06;5114033;28;20071;-69
2021/08/13 11:27:00;;;;;;;5.80;3.42;;;;;;;31.39;38.71;100225.19;5115093;28;20056;-70
2021/08/13 11:29:45;;;;;;;7.38;3.60;;;;;;;31.28;38.04;100219.91;5114542;28;20078;-69
2021/08/13 11:32:30;;;;;;;5.45;3.38;;;;;;;31.36;37.98;100225.41;5114188;28;20401;-69
2021/08/13 11:35:03;;;;;;;5.53;3.08;;;;;;;31.26;38.49;100216.53;5113880;28;20051;-71
2021/08/13 11:37:50;;;;;;;4.60;3.22;;;;;;;31.34;38.47;100216.78;5114033;28;20058;-68
2021/08/13 11:40:44;;;;;;;6.57;3.65;;;;;;;31.26;38.13;100219.19;5114315;28;20450;-67
2021/08/13 11:43:16;;;;;;;5.97;3.28;;;;;;;31.07;38.06;100206.56;5113774;28;20047;-69
2021/08/13 11:45:52;;;;;;;5.97;2.80;;;;;;;30.97;38.55;100226.72;5114743;28;20036;-69
2021/08/13 11:48:31;;;;;;;6.97;3.60;;;;;;;30.92;37.85;100226.22;5113855;28;20044;-68